Time;durP1;ratioP1;P1;durP2;ratioP2;P2;SDS_P1;SDS_P2;PMS_P1;PMS_P2;Temp;Humidity;BMP_temperature;BMP_pressure;BME280_temperature;BME280_humidity;BME280_pressure;Samples;Min_cycle;Max_cycle;Signal;HPM_P1;HPM_P2
2024/01/16 00:01:42;;;;;;;664.17;371.45;;;;;;;8.88;nan;97069.84;4998901;28;22122;-59
2024/01/16 00:04:08;;;;;;;504.38;195.60;;;;;;;9.14;nan;97081.66;5003769;28;20030;-58
2024/01/16 00:06:33;;;;;;;643.60;238.93;;;;;;;10.47;nan;97083.19;5000642;28;20472;-58
2024/01/16 00:08:58;;;;;;;514.47;223.60;;;;;;;9.81;nan;97087.69;5001870;28;20030;-59
2024/01/16 00:11:23;;;;;;;608.38;185.82;;;;;;;9.86;nan;97093.66;5001543;28;20408;-59
2024/01/16 00:13:49;;;;;;;477.85;169.80;;;;;;;7.95;nan;97085.34;5002237;28;20474;-60
2024/01/16 00:16:14;;;;;;;543.55;168.90;;;;;;;6.61;nan;97098.03;5002353;28;20417;-58
2024/01/16 00:18:39;;;;;;;560.10;313.08;;;;;;;6.95;nan;97105.72;5000635;28;20038;-60
2024/01/16 00:21:05;;;;;;;496.25;180.40;;;;;;;5.58;nan;97105.72;5002910;28;20322;-62
2024/01/16 00:23:33;;;;;;;608.13;205.00;;;;;;;8.12;nan;97093.88;5001607;28;20030;-62
2024/01/16 00:25:58;;;;;;;375.17;146.52;;;;;;;7.60;nan;97109.72;5007738;28;20037;-58
2024/01/16 00:28:23;;;;;;;470.38;178.52;;;;;;;8.70;nan;97104.59;5003619;28;20064;-60
2024/01/16 00:30:49;;;;;;;464.17;184.00;;;;;;;5.83;nan;97106.63;5006651;28;20038;-60
2024/01/16 00:33:14;;;;;;;427.17;217.90;;;;;;;6.05;nan;97106.69;5008198;28;20022;-60
2024/01/16 00:35:39;;;;;;;533.97;321.60;;;;;;;7.52;nan;97116.69;5004189;28;20045;-60
2024/01/16 00:38:05;;;;;;;440.38;172.23;;;;;;;4.97;nan;97120.13;5004964;28;20552;-58
2024/01/16 00:40:30;;;;;;;532.53;271.00;;;;;;;7.34;nan;97122.78;5003001;28;20041;-58
2024/01/16 00:42:56;;;;;;;441.73;180.45;;;;;;;7.35;nan;97121.94;5004365;28;20025;-59
2024/01/16 00:45:22;;;;;;;437.80;163.45;;;;;;;7.46;nan;97119.31;5004364;28;20346;-58
2024/01/16 00:47:47;;;;;;;429.15;174.38;;;;;;;7.09;nan;97134.09;5006577;28;20237;-58
2024/01/16 00:50:13;;;;;;;431.40;165.27;;;;;;;7.07;nan;97132.38;5004706;28;20092;-59
2024/01/16 00:52:38;;;;;;;561.10;162.70;;;;;;;7.32;nan;97129.72;5004475;28;20030;-59
2024/01/16 00:55:04;;;;;;;447.60;172.65;;;;;;;5.80;nan;97129.88;5007161;28;20037;-60
2024/01/16 00:57:30;;;;;;;496.83;204.77;;;;;;;6.47;nan;97124.75;5003558;28;20083;-60
2024/01/16 00:59:55;;;;;;;417.27;168.50;;;;;;;6.97;nan;97118.63;5005640;28;20492;-60
2024/01/16 01:02:20;;;;;;;394.30;170.00;;;;;;;6.31;nan;97123.03;5003459;28;20069;-59
2024/01/16 01:04:46;;;;;;;468.58;184.80;;;;;;;7.05;nan;97124.63;5002088;28;20033;-60
2024/01/16 01:07:14;;;;;;;549.88;161.88;;;;;;;7.24;nan;97132.34;5000642;28;20034;-60
2024/01/16 01:09:40;;;;;;;666.53;172.93;;;;;;;7.16;nan;97135.81;5001045;28;20064;-59
2024/01/16 01:12:06;;;;;;;468.48;153.38;;;;;;;5.45;nan;97139.22;5001095;28;20203;-59
2024/01/16 01:14:31;;;;;;;491.38;146.45;;;;;;;5.52;nan;97154.69;4999783;28;20038;-60
2024/01/16 01:16:57;;;;;;;407.88;149.52;;;;;;;5.47;nan;97155.53;4999744;28;20285;-60
2024/01/16 01:19:22;;;;;;;487.40;161.63;;;;;;;6.33;nan;97152.31;5002145;28;20036;-59
2024/01/16 01:21:49;;;;;;;427.10;162.23;;;;;;;4.91;nan;97149.28;4998763;28;20689;-61
2024/01/16 01:24:14;;;;;;;504.67;339.92;;;;;;;6.12;nan;97157.47;5002845;28;20053;-60
2024/01/16 01:26:43;;;;;;;534.15;172.70;;;;;;;6.26;nan;97161.78;5000279;28;20129;-60
2024/01/16 01:29:08;;;;;;;447.40;168.48;;;;;;;7.44;nan;97163.28;5003503;28;20025;-59
2024/01/16 01:31:33;;;;;;;583.03;195.88;;;;;;;6.22;nan;97171.25;4999930;28;20092;-62
2024/01/16 01:33:59;;;;;;;476.60;178.75;;;;;;;7.43;nan;97172.78;5001960;28;20481;-60
2024/01/16 01:36:24;;;;;;;448.02;177.05;;;;;;;6.77;nan;97178.97;4998961;28;20049;-60
2024/01/16 01:38:49;;;;;;;501.60;222.68;;;;;;;8.94;nan;97170.03;5002133;28;20124;-59
2024/01/16 01:41:15;;;;;;;485.00;168.98;;;;;;;8.15;nan;97185.34;4998518;28;20038;-59
2024/01/16 01:43:40;;;;;;;572.05;162.13;;;;;;;6.28;nan;97188.47;4999792;28;20752;-58
2024/01/16 01:46:23;;;;;;;437.50;152.63;;;;;;;4.41;nan;97191.03;5001251;28;20045;-59
2024/01/16 01:48:49;;;;;;;450.60;151.85;;;;;;;4.83;nan;97193.06;5000172;28;20373;-62
2024/01/16 01:51:18;;;;;;;437.67;157.55;;;;;;;5.63;nan;97191.72;5001389;28;20064;-62
2024/01/16 01:53:45;;;;;;;586.50;167.70;;;;;;;5.32;nan;97187.31;5000248;28;20087;-61
2024/01/16 01:56:13;;;;;;;432.90;161.55;;;;;;;6.11;nan;97191.03;5001819;28;20305;-62
2024/01/16 01:58:40;;;;;;;557.53;161.50;;;;;;;3.70;nan;97209.19;4999725;28;20495;-60
2024/01/16 02:01:09;;;;;;;450.33;201.48;;;;;;;3.84;nan;97208.50;5000976;28;20048;-60
2024/01/16 02:03:43;;;;;;;574.65;160.82;;;;;;;4.73;nan;97210.16;5001004;28;20410;-62
2024/01/16 02:06:09;;;;;;;447.88;159.10;;;;;;;4.13;nan;97213.91;5000241;28;20034;-60
2024/01/16 02:08:35;;;;;;;514.08;166.73;;;;;;;4.11;nan;97207.91;5000469;28;20111;-61
2024/01/16 02:11:01;;;;;;;425.40;152.27;;;;;;;4.73;nan;97211.84;5001859;28;20469;-61
2024/01/16 02:13:26;;;;;;;407.38;151.18;;;;;;;3.90;nan;97217.13;4999003;28;20091;-62
2024/01/16 02:15:51;;;;;;;427.13;152.13;;;;;;;4.36;nan;97218.44;5001448;28;20423;-61
2024/01/16 02:18:17;;;;;;;403.55;145.50;;;;;;;5.58;nan;97217.53;5000955;28;20025;-61
2024/01/16 02:20:44;;;;;;;528.28;152.80;;;;;;;6.36;nan;97214.28;4999211;28;20124;-62
2024/01/16 02:23:10;;;;;;;376.98;148.13;;;;;;;5.24;nan;97219.06;5002923;28;20030;-61
2024/01/16 02:26:26;;;;;;;382.23;148.05;;;;;;;5.37;nan;97217.41;5008497;28;20038;-60
2024/01/16 02:28:52;;;;;;;418.27;152.80;;;;;;;3.89;nan;97215.41;5036172;28;20405;-64
2024/01/16 02:31:18;;;;;;;456.88;157.75;;;;;;;3.61;nan;97220.22;5044381;28;20036;-61
2024/01/16 02:33:43;;;;;;;544.33;154.18;;;;;;;2.83;nan;97224.34;5044422;28;20412;-62
2024/01/16 02:36:08;;;;;;;370.95;137.07;;;;;;;3.07;nan;97230.69;5044900;28;20123;-62
2024/01/16 02:38:34;;;;;;;589.30;195.60;;;;;;;4.02;nan;97233.56;5045595;28;20021;-61
2024/01/16 02:40:59;;;;;;;386.23;146.32;;;;;;;4.26;nan;97238.09;5047955;28;20047;-61
2024/01/16 02:43:26;;;;;;;369.13;153.45;;;;;;;3.13;nan;97245.34;5044788;28;20530;-62
2024/01/16 02:45:52;;;;;;;455.92;178.57;;;;;;;2.96;nan;97247.63;5045314;28;20032;-61
2024/01/16 02:48:17;;;;;;;412.33;155.68;;;;;;;2.97;nan;97249.38;5044748;28;20400;-61
2024/01/16 02:50:43;;;;;;;528.53;166.43;;;;;;;3.62;nan;97245.13;5042848;28;20503;-61
2024/01/16 02:53:08;;;;;;;460.13;158.35;;;;;;;3.06;nan;97243.50;5047495;28;20028;-60
2024/01/16 02:55:34;;;;;;;554.08;174.40;;;;;;;4.78;nan;97247.13;5042913;28;20492;-61
2024/01/16 02:57:59;;;;;;;412.17;168.68;;;;;;;3.72;nan;97253.81;5044203;28;20024;-62
2024/01/16 03:00:24;;;;;;;457.23;169.40;;;;;;;4.52;nan;97255.50;5041111;28;20041;-61
2024/01/16 03:02:50;;;;;;;407.17;159.95;;;;;;;3.41;nan;97263.69;5046405;28;20404;-61
2024/01/16 03:05:15;;;;;;;430.70;160.50;;;;;;;3.77;nan;97264.16;5012566;28;20062;-62
2024/01/16 03:07:41;;;;;;;582.88;162.88;;;;;;;2.90;nan;97260.41;5044232;28;20853;-61
2024/01/16 03:10:06;;;;;;;395.13;153.25;;;;;;;4.39;nan;97256.22;5043001;28;20463;-60
2024/01/16 03:12:32;;;;;;;440.02;154.48;;;;;;;5.48;nan;97254.44;5043507;28;20331;-60
2024/01/16 03:14:58;;;;;;;448.00;159.27;;;;;;;5.60;nan;97257.06;5044007;28;20029;-62
2024/01/16 03:17:23;;;;;;;410.58;158.25;;;;;;;4.94;nan;97258.41;5040475;28;20107;-60
2024/01/16 03:19:48;;;;;;;529.55;165.38;;;;;;;6.09;nan;97252.97;5043338;28;20040;-61
2024/01/16 03:22:14;;;;;;;451.48;163.68;;;;;;;6.10;nan;97249.56;5045054;28;20032;-60
2024/01/16 03:24:39;;;;;;;405.90;158.40;;;;;;;6.48;nan;97249.59;5045366;28;20317;-61
2024/01/16 03:27:04;;;;;;;459.50;158.15;;;;;;;4.25;nan;97246.66;5044735;28;20124;-60
2024/01/16 03:29:30;;;;;;;471.85;157.82;;;;;;;2.97;nan;97260.50;5047250;28;20025;-61
2024/01/16 03:31:55;;;;;;;409.73;155.75;;;;;;;2.91;nan;97252.72;5045258;28;20040;-60
2024/01/16 03:34:20;;;;;;;432.55;160.02;;;;;;;3.44;nan;97255.16;5047547;28;20060;-63
2024/01/16 03:36:46;;;;;;;476.00;164.90;;;;;;;4.88;nan;97250.63;5045857;28;20048;-60
2024/01/16 03:39:11;;;;;;;441.92;157.23;;;;;;;4.82;nan;97263.44;5045526;28;20028;-60
2024/01/16 03:41:37;;;;;;;431.30;151.30;;;;;;;5.18;nan;97262.00;5044510;28;20040;-61
2024/01/16 03:44:03;;;;;;;428.95;151.00;;;;;;;4.39;nan;97269.94;5044048;28;20037;-60
2024/01/16 03:46:29;;;;;;;389.45;145.63;;;;;;;4.36;nan;97264.78;5044702;28;20099;-60
2024/01/16 03:48:54;;;;;;;404.02;150.75;;;;;;;4.77;nan;97270.28;5044409;28;20477;-60
2024/01/16 03:51:19;;;;;;;443.35;156.80;;;;;;;4.64;nan;97256.47;5044924;28;20041;-61
2024/01/16 03:53:45;;;;;;;442.75;158.20;;;;;;;5.39;nan;97254.38;5050001;28;20423;-61
2024/01/16 03:56:11;;;;;;;413.48;157.10;;;;;;;5.23;nan;97259.44;5044309;28;20135;-62
2024/01/16 03:58:37;;;;;;;494.95;159.20;;;;;;;3.94;nan;97266.94;5045578;28;20562;-62
2024/01/16 04:01:02;;;;;;;422.70;156.93;;;;;;;3.99;nan;97266.97;5045129;28;20048;-61
2024/01/16 04:03:28;;;;;;;401.17;157.18;;;;;;;3.54;nan;97267.31;5045720;28;20064;-61
2024/01/16 04:05:53;;;;;;;457.50;157.10;;;;;;;2.68;nan;97263.47;5044649;28;20033;-60
2024/01/16 04:08:18;;;;;;;405.02;160.82;;;;;;;2.93;nan;97273.31;5047189;28;20124;-60
2024/01/16 04:10:44;;;;;;;432.83;161.20;;;;;;;3.55;nan;97263.88;5045219;28;20155;-60
2024/01/16 04:13:09;;;;;;;440.13;153.85;;;;;;;2.49;nan;97266.59;5045118;28;20025;-60
2024/01/16 04:15:38;;;;;;;441.88;157.50;;;;;;;2.09;nan;97267.59;5045240;28;20040;-60
2024/01/16 04:18:03;;;;;;;401.58;157.68;;;;;;;1.97;nan;97268.25;5048343;28;20032;-59
2024/01/16 04:20:28;;;;;;;454.92;163.80;;;;;;;1.19;nan;97274.34;5042476;28;20041;-62
2024/01/16 04:22:54;;;;;;;384.17;157.40;;;;;;;1.33;nan;97272.06;5044067;28;20032;-60
2024/01/16 04:25:19;;;;;;;381.50;129.15;;;;;;;1.14;nan;97273.34;5044408;28;20805;-59
2024/01/16 04:27:45;;;;;;;465.30;144.55;;;;;;;1.88;nan;97274.06;5043444;28;20019;-58
2024/01/16 04:30:10;;;;;;;383.73;134.45;;;;;;;0.96;nan;97272.09;5043671;28;20035;-58
2024/01/16 04:32:36;;;;;;;391.17;141.63;;;;;;;1.96;nan;97276.75;5044111;28;20425;-60
2024/01/16 04:35:01;;;;;;;412.67;139.73;;;;;;;1.82;nan;97279.91;5045335;28;20020;-60
2024/01/16 04:37:26;;;;;;;336.08;140.75;;;;;;;1.54;nan;97274.25;5042823;28;20438;-60
2024/01/16 04:39:52;;;;;;;470.35;144.27;;;;;;;1.75;nan;97278.06;5044636;28;20519;-60
2024/01/16 04:42:20;;;;;;;426.60;149.82;;;;;;;1.03;nan;97270.56;5045105;28;20504;-59
2024/01/16 04:44:45;;;;;;;436.08;148.55;;;;;;;1.29;nan;97280.53;5044653;28;20036;-59
2024/01/16 04:47:11;;;;;;;451.15;147.52;;;;;;;1.73;nan;97277.19;5042142;28;20060;-58
2024/01/16 04:49:37;;;;;;;478.33;151.50;;;;;;;1.09;nan;97290.31;5044228;28;20028;-59
2024/01/16 04:52:03;;;;;;;392.27;147.00;;;;;;;2.23;nan;97287.53;5044606;28;20080;-58
2024/01/16 04:54:28;;;;;;;360.50;151.40;;;;;;;1.32;nan;97284.84;5044319;28;20047;-58
2024/01/16 04:56:53;;;;;;;387.55;150.18;;;;;;;1.36;nan;97284.97;5043626;28;20294;-59
2024/01/16 04:59:19;;;;;;;387.08;147.65;;;;;;;2.05;nan;97287.19;5043574;28;20028;-60
2024/01/16 05:01:44;;;;;;;424.73;147.48;;;;;;;1.41;nan;97288.47;5044869;28;20466;-60
2024/01/16 05:04:10;;;;;;;386.00;153.05;;;;;;;1.46;nan;97290.28;5043737;28;20050;-59
2024/01/16 05:06:35;;;;;;;375.45;153.68;;;;;;;1.62;nan;97282.09;5044594;28;20043;-60
2024/01/16 05:09:01;;;;;;;370.45;151.48;;;;;;;1.22;nan;97282.09;5042125;28;20109;-59
2024/01/16 05:11:26;;;;;;;364.13;149.50;;;;;;;2.05;nan;97286.34;5042685;28;20341;-60
2024/01/16 05:13:57;;;;;;;384.95;152.30;;;;;;;1.87;nan;97277.47;5043289;28;20284;-60
2024/01/16 05:16:24;;;;;;;397.45;150.82;;;;;;;3.11;nan;97282.97;5041364;28;20059;-60
2024/01/16 05:18:49;;;;;;;429.25;163.77;;;;;;;2.93;nan;97284.41;5042221;28;20051;-61
2024/01/16 05:21:14;;;;;;;400.40;154.40;;;;;;;2.50;nan;97269.19;5041178;28;20670;-60
2024/01/16 05:23:39;;;;;;;465.35;151.75;;;;;;;3.02;nan;97273.44;5036179;28;20269;-60
2024/01/16 05:26:05;;;;;;;436.50;153.82;;;;;;;3.04;nan;97270.91;5044491;28;20032;-59
2024/01/16 05:28:30;;;;;;;417.95;211.57;;;;;;;4.87;nan;97266.06;5045114;28;20423;-59
2024/01/16 05:30:55;;;;;;;414.45;152.45;;;;;;;2.55;nan;97271.81;5042706;28;20041;-60
2024/01/16 05:33:21;;;;;;;381.67;190.23;;;;;;;3.66;nan;97269.16;5045453;28;20098;-60
2024/01/16 05:35:46;;;;;;;458.38;157.30;;;;;;;2.15;nan;97272.00;5040552;28;20036;-60
2024/01/16 05:38:12;;;;;;;456.67;159.63;;;;;;;1.48;nan;97273.25;5041825;28;20032;-60
2024/01/16 05:40:37;;;;;;;423.02;155.20;;;;;;;1.06;nan;97280.88;5039760;28;20071;-58
2024/01/16 05:43:03;;;;;;;403.67;149.98;;;;;;;0.78;nan;97275.13;5043492;28;20452;-60
2024/01/16 05:45:28;;;;;;;437.40;156.95;;;;;;;0.90;nan;97275.38;5042699;28;20040;-60
2024/01/16 05:47:53;;;;;;;432.55;151.43;;;;;;;0.52;nan;97272.78;5041703;28;20035;-58
2024/01/16 05:50:19;;;;;;;391.05;152.45;;;;;;;0.20;nan;97276.25;5042268;28;20044;-60
2024/01/16 05:52:44;;;;;;;450.48;154.18;;;;;;;0.40;nan;97265.66;5040510;28;20544;-60
2024/01/16 05:55:10;;;;;;;418.80;152.23;;;;;;;0.33;nan;97271.47;5041554;28;20254;-59
2024/01/16 05:57:37;;;;;;;395.05;148.88;;;;;;;0.43;nan;97267.41;5036401;28;20024;-60
2024/01/16 06:00:03;;;;;;;413.38;151.68;;;;;;;0.40;nan;97275.03;5045440;28;20028;-59
2024/01/16 06:02:29;;;;;;;348.02;146.85;;;;;;;0.21;nan;97271.97;5047157;28;20381;-58
2024/01/16 06:04:54;;;;;;;455.10;152.27;;;;;;;0.25;nan;97277.22;5046659;28;20025;-58
2024/01/16 06:07:20;;;;;;;389.00;151.50;;;;;;;1.77;nan;97276.41;5047091;28;20037;-58
2024/01/16 06:09:45;;;;;;;522.35;159.45;;;;;;;1.47;nan;97277.50;5045763;28;20507;-58
2024/01/16 06:12:12;;;;;;;407.27;158.82;;;;;;;1.65;nan;97276.16;5050190;28;20041;-59
2024/01/16 06:14:37;;;;;;;425.88;156.52;;;;;;;1.09;nan;97290.31;5046983;28;20033;-58
2024/01/16 06:17:05;;;;;;;366.08;153.23;;;;;;;1.21;nan;97284.59;5045059;28;20739;-61
2024/01/16 06:19:30;;;;;;;396.50;152.82;;;;;;;0.82;nan;97286.28;5047418;28;20024;-58
2024/01/16 06:21:55;;;;;;;430.40;154.43;;;;;;;1.15;nan;97286.19;5036882;28;20471;-59
2024/01/16 06:24:21;;;;;;;412.92;154.70;;;;;;;1.08;nan;97298.84;5044602;28;20055;-58
2024/01/16 06:26:46;;;;;;;456.70;162.00;;;;;;;1.50;nan;97307.44;5044175;28;20548;-59
2024/01/16 06:29:12;;;;;;;450.10;152.60;;;;;;;1.48;nan;97299.72;5045030;28;20147;-57
2024/01/16 06:31:38;;;;;;;386.00;151.70;;;;;;;2.25;nan;97303.78;5046063;28;20661;-59
2024/01/16 06:34:03;;;;;;;380.30;160.20;;;;;;;1.00;nan;97306.34;5047397;28;20068;-57
2024/01/16 06:36:29;;;;;;;408.45;158.60;;;;;;;1.69;nan;97309.59;5045444;28;20124;-60
2024/01/16 06:38:54;;;;;;;398.20;152.85;;;;;;;1.75;nan;97307.97;5045682;28;20056;-58
2024/01/16 06:41:20;;;;;;;435.98;156.52;;;;;;;0.98;nan;97316.56;5044235;28;20064;-58
2024/01/16 06:43:46;;;;;;;519.10;161.57;;;;;;;1.60;nan;97318.78;5042799;28;20020;-62
2024/01/16 06:46:11;;;;;;;411.75;152.98;;;;;;;0.87;nan;97331.66;5042980;28;20144;-61
2024/01/16 06:48:38;;;;;;;421.45;148.30;;;;;;;0.50;nan;97329.03;5043094;28;20100;-60
2024/01/16 06:51:04;;;;;;;480.48;165.65;;;;;;;1.32;nan;97324.16;5042161;28;20043;-59
2024/01/16 06:53:29;;;;;;;455.15;179.63;;;;;;;0.21;nan;97323.13;5042936;28;20505;-60
2024/01/16 06:55:55;;;;;;;503.88;178.68;;;;;;;0.11;nan;97325.44;5043971;28;20041;-60
2024/01/16 06:58:20;;;;;;;478.25;171.95;;;;;;;-0.15;nan;97327.31;5042008;28;20407;-60
2024/01/16 07:00:46;;;;;;;460.88;175.82;;;;;;;-0.07;nan;97322.41;5029418;28;20040;-60
2024/01/16 07:03:12;;;;;;;405.55;159.30;;;;;;;0.16;nan;97324.72;5045430;28;20074;-62
2024/01/16 07:05:38;;;;;;;470.90;160.90;;;;;;;-0.03;nan;97324.22;5044044;28;20131;-60
2024/01/16 07:08:03;;;;;;;390.02;158.60;;;;;;;-0.07;nan;97319.84;5045463;28;20104;-60
2024/01/16 07:10:29;;;;;;;378.33;156.95;;;;;;;-0.08;nan;97320.66;5043164;28;20098;-60
2024/01/16 07:12:56;;;;;;;488.88;168.10;;;;;;;-0.16;nan;97323.88;5045700;28;20477;-61
2024/01/16 07:15:21;;;;;;;347.95;162.00;;;;;;;-0.23;nan;97316.84;5046886;28;20120;-61
2024/01/16 07:17:46;;;;;;;422.27;162.85;;;;;;;-0.16;nan;97320.44;5043945;28;20051;-60
2024/01/16 07:20:12;;;;;;;435.45;164.50;;;;;;;-0.16;nan;97326.41;5043893;28;20032;-58
2024/01/16 07:22:39;;;;;;;400.83;164.68;;;;;;;-0.10;nan;97323.19;5045029;28;20083;-61
2024/01/16 07:25:05;;;;;;;363.52;153.85;;;;;;;-0.17;nan;97319.59;5046645;28;20017;-59
2024/01/16 07:27:31;;;;;;;401.65;151.50;;;;;;;-0.11;nan;97325.69;5042802;28;20178;-62
2024/01/16 07:29:56;;;;;;;408.00;151.23;;;;;;;-0.14;nan;97322.22;5043986;28;20017;-59
2024/01/16 07:32:22;;;;;;;323.20;148.60;;;;;;;-0.20;nan;97324.59;5042977;28;20070;-63
2024/01/16 07:34:47;;;;;;;481.50;155.05;;;;;;;-0.18;nan;97314.44;5024993;28;20467;-58
2024/01/16 07:37:12;;;;;;;404.17;148.50;;;;;;;-0.05;nan;97326.72;5046366;28;20049;-59
2024/01/16 07:39:38;;;;;;;411.48;186.90;;;;;;;0.11;nan;97317.78;5044154;28;20040;-59
2024/01/16 07:42:04;;;;;;;389.90;157.43;;;;;;;0.06;nan;97323.59;5044844;28;20032;-58
2024/01/16 07:44:29;;;;;;;334.25;148.00;;;;;;;-0.04;nan;97328.44;5044619;28;20519;-58
2024/01/16 07:46:54;;;;;;;419.95;153.60;;;;;;;0.12;nan;97326.31;5044582;28;20025;-59
2024/01/16 07:49:20;;;;;;;370.40;153.60;;;;;;;0.28;nan;97331.84;5045917;28;20089;-59
2024/01/16 07:51:45;;;;;;;454.50;157.80;;;;;;;0.24;nan;97338.56;5043747;28;20037;-60
2024/01/16 07:54:13;;;;;;;373.35;148.98;;;;;;;0.32;nan;97343.88;5043679;28;20396;-58
2024/01/16 07:56:38;;;;;;;443.73;157.93;;;;;;;0.23;nan;97354.75;5043730;28;20478;-59
2024/01/16 07:59:04;;;;;;;381.85;156.77;;;;;;;0.49;nan;97355.44;5044945;28;20540;-58
2024/01/16 08:01:29;;;;;;;394.52;153.32;;;;;;;0.37;nan;97357.69;5041611;28;20040;-59
2024/01/16 08:03:55;;;;;;;362.88;150.73;;;;;;;0.36;nan;97356.81;5044130;28;20028;-61
2024/01/16 08:06:21;;;;;;;386.15;150.85;;;;;;;0.44;nan;97362.13;5042869;28;20394;-58
2024/01/16 08:08:48;;;;;;;428.77;152.57;;;;;;;0.41;nan;97356.06;5042397;28;20028;-58
2024/01/16 08:11:14;;;;;;;445.15;156.60;;;;;;;0.22;nan;97361.56;5041225;28;20051;-58
2024/01/16 08:13:39;;;;;;;397.52;155.45;;;;;;;0.28;nan;97362.53;5046569;28;20028;-60
2024/01/16 08:16:05;;;;;;;401.17;148.70;;;;;;;0.27;nan;97361.69;5043149;28;20040;-59
2024/01/16 08:18:31;;;;;;;392.50;147.27;;;;;;;0.29;nan;97360.03;5044956;28;20036;-58
2024/01/16 08:20:56;;;;;;;422.52;148.85;;;;;;;0.44;nan;97358.72;5042065;28;20087;-59
2024/01/16 08:23:22;;;;;;;364.30;152.25;;;;;;;0.55;nan;97356.44;5043977;28;20522;-58
2024/01/16 08:25:48;;;;;;;505.63;161.02;;;;;;;0.60;nan;97358.28;5042668;28;20040;-61
2024/01/16 08:28:14;;;;;;;384.00;155.18;;;;;;;0.77;nan;97355.28;5042682;28;20136;-60
2024/01/16 08:30:39;;;;;;;385.00;144.63;;;;;;;1.02;nan;97346.53;5045163;28;20507;-58
2024/01/16 08:33:04;;;;;;;410.52;153.90;;;;;;;0.96;nan;97353.22;5043905;28;20040;-58
2024/01/16 08:35:30;;;;;;;368.67;147.85;;;;;;;0.71;nan;97356.00;5043529;28;20072;-58
2024/01/16 08:37:55;;;;;;;375.65;149.13;;;;;;;1.54;nan;97357.94;5042963;28;20532;-60
2024/01/16 08:40:21;;;;;;;426.38;151.02;;;;;;;1.44;nan;97354.31;5042003;28;20326;-58
2024/01/16 08:42:51;;;;;;;435.75;156.75;;;;;;;1.06;nan;97362.84;5043350;28;20105;-58
2024/01/16 08:45:17;;;;;;;383.27;154.82;;;;;;;1.32;nan;97357.47;5043216;28;20055;-58
2024/01/16 08:47:42;;;;;;;440.20;156.73;;;;;;;1.07;nan;97364.56;5027717;28;20300;-60
2024/01/16 08:50:09;;;;;;;395.00;151.50;;;;;;;1.02;nan;97361.03;5043148;28;20029;-60
2024/01/16 08:52:34;;;;;;;387.27;151.32;;;;;;;1.24;nan;97359.84;5044984;28;20028;-58
2024/01/16 08:54:59;;;;;;;464.85;152.95;;;;;;;1.33;nan;97368.59;5042420;28;20377;-60
2024/01/16 08:57:25;;;;;;;366.98;153.05;;;;;;;1.22;nan;97371.75;5040216;28;20127;-58
2024/01/16 08:59:50;;;;;;;510.05;158.57;;;;;;;1.37;nan;97363.56;5043396;28;20059;-61
2024/01/16 09:02:16;;;;;;;460.92;149.82;;;;;;;1.23;nan;97370.06;5036240;28;20041;-58
2024/01/16 09:04:41;;;;;;;347.38;149.95;;;;;;;1.19;nan;97363.13;5047639;28;20125;-60
2024/01/16 09:07:06;;;;;;;386.70;149.68;;;;;;;1.30;nan;97370.22;5042381;28;20032;-58
2024/01/16 09:09:32;;;;;;;381.85;147.93;;;;;;;0.87;nan;97364.94;5046778;28;20028;-59
2024/01/16 09:11:57;;;;;;;441.98;153.95;;;;;;;1.17;nan;97366.53;5040741;28;20452;-59
2024/01/16 09:14:23;;;;;;;364.52;152.65;;;;;;;2.49;nan;97359.00;5044775;28;20096;-61
2024/01/16 09:16:48;;;;;;;533.28;159.40;;;;;;;1.77;nan;97360.13;5044114;28;20047;-59
2024/01/16 09:19:14;;;;;;;365.63;152.68;;;;;;;1.75;nan;97364.38;5047000;28;20037;-58
2024/01/16 09:21:39;;;;;;;332.45;147.52;;;;;;;1.19;nan;97363.13;5044817;28;20044;-58
2024/01/16 09:24:04;;;;;;;370.25;151.65;;;;;;;1.29;nan;97365.94;5047209;28;20040;-58
2024/01/16 09:26:31;;;;;;;333.77;150.80;;;;;;;1.13;nan;97369.84;5045497;28;20045;-58
2024/01/16 09:28:56;;;;;;;402.42;156.65;;;;;;;1.09;nan;97369.72;5036165;28;20017;-61
2024/01/16 09:31:22;;;;;;;433.52;157.18;;;;;;;1.54;nan;97370.75;5043544;28;20040;-60
2024/01/16 09:33:47;;;;;;;400.80;158.75;;;;;;;1.90;nan;97369.81;5042822;28;20066;-61
2024/01/16 09:36:12;;;;;;;353.23;151.75;;;;;;;1.99;nan;97373.41;5046502;28;20177;-60
2024/01/16 09:38:38;;;;;;;407.67;153.80;;;;;;;1.53;nan;97371.59;5045109;28;20029;-58
2024/01/16 09:41:03;;;;;;;439.98;160.40;;;;;;;1.53;nan;97371.59;5042593;28;20040;-59
2024/01/16 09:43:31;;;;;;;322.25;149.80;;;;;;;1.53;nan;97376.72;5045829;28;20029;-58
2024/01/16 09:46:01;;;;;;;450.90;158.07;;;;;;;1.17;nan;97373.34;5043943;28;20032;-58
2024/01/16 09:48:28;;;;;;;316.90;150.77;;;;;;;1.00;nan;97372.94;5044461;28;20028;-59
2024/01/16 09:50:53;;;;;;;429.75;154.13;;;;;;;1.47;nan;97374.00;5043593;28;20043;-58
2024/01/16 09:53:19;;;;;;;366.42;145.50;;;;;;;1.54;nan;97371.66;5044981;28;20313;-60
2024/01/16 09:55:45;;;;;;;358.55;136.63;;;;;;;1.57;nan;97381.09;5044205;28;20055;-61
2024/01/16 09:58:14;;;;;;;313.73;124.93;;;;;;;1.74;nan;97383.19;5045065;28;20350;-59
2024/01/16 10:00:43;;;;;;;374.77;189.25;;;;;;;1.36;nan;97381.44;5045063;28;20090;-57
2024/01/16 10:03:12;;;;;;;352.50;164.77;;;;;;;-0.11;nan;97392.16;5042670;28;20028;-59
2024/01/16 10:05:39;;;;;;;319.75;95.00;;;;;;;-0.28;nan;97390.84;5046346;28;20036;-58
2024/01/16 10:08:04;;;;;;;387.52;132.48;;;;;;;-0.02;nan;97382.19;5045437;28;20203;-57
2024/01/16 10:10:30;;;;;;;292.77;142.45;;;;;;;-0.01;nan;97389.03;5045925;28;20045;-58
2024/01/16 10:12:55;;;;;;;356.98;125.15;;;;;;;-0.10;nan;97383.66;5044861;28;20544;-58
2024/01/16 10:15:22;;;;;;;391.02;164.30;;;;;;;-0.14;nan;97387.81;5046254;28;20032;-58
2024/01/16 10:17:47;;;;;;;365.55;177.23;;;;;;;-0.13;nan;97387.00;5045710;28;20036;-59
2024/01/16 10:20:17;;;;;;;394.10;197.18;;;;;;;-0.34;nan;97388.09;5042784;28;20025;-61
2024/01/16 10:22:52;;;;;;;336.55;161.50;;;;;;;-0.07;nan;97389.72;5045662;28;20588;-58
2024/01/16 10:25:19;;;;;;;313.75;158.90;;;;;;;-0.08;nan;97387.13;5026288;28;20028;-58
2024/01/16 10:27:45;;;;;;;341.02;165.80;;;;;;;-0.18;nan;97389.41;5045350;28;20017;-62
2024/01/16 10:30:12;;;;;;;322.77;147.30;;;;;;;-0.20;nan;97388.50;5045687;28;20385;-60
2024/01/16 10:32:39;;;;;;;266.05;122.60;;;;;;;0.21;nan;97389.63;5044102;28;20152;-63
2024/01/16 10:35:12;;;;;;;363.90;121.78;;;;;;;0.50;nan;97387.91;5045188;28;20020;-62
2024/01/16 10:37:44;;;;;;;306.60;116.85;;;;;;;0.69;nan;97382.38;5045813;28;20048;-60
2024/01/16 10:40:11;;;;;;;388.60;113.10;;;;;;;0.64;nan;97385.69;5043569;28;20464;-62
2024/01/16 10:42:37;;;;;;;317.58;118.45;;;;;;;0.57;nan;97388.03;5044551;28;20770;-62
2024/01/16 10:45:03;;;;;;;377.77;119.68;;;;;;;0.59;nan;97387.25;5027634;28;20032;-60
2024/01/16 10:47:28;;;;;;;362.85;119.88;;;;;;;0.85;nan;97374.28;5046941;28;20493;-61
2024/01/16 10:49:54;;;;;;;381.35;108.20;;;;;;;0.97;nan;97367.72;5048003;28;20033;-61
2024/01/16 10:52:26;;;;;;;316.92;100.32;;;;;;;1.04;nan;97367.91;5047910;28;20044;-61
2024/01/16 10:54:52;;;;;;;312.40;107.68;;;;;;;1.35;nan;97365.22;5046706;28;20059;-63
2024/01/16 10:57:18;;;;;;;366.45;114.63;;;;;;;1.65;nan;97366.75;5046925;28;20493;-59
2024/01/16 11:00:00;;;;;;;445.85;111.93;;;;;;;1.89;nan;97365.53;5047902;28;20075;-60
2024/01/16 11:02:31;;;;;;;;;;;;;;;2.09;nan;97362.53;5047318;28;20028;-58
2024/01/16 11:04:57;;;;;;;389.25;121.68;;;;;;;2.01;nan;97366.63;5045863;28;19916;-60
2024/01/16 11:07:26;;;;;;;312.02;111.90;;;;;;;2.59;nan;97366.91;5047146;28;20503;-60
2024/01/16 11:09:52;;;;;;;411.23;116.43;;;;;;;2.33;nan;97362.16;5048314;28;20070;-59
2024/01/16 11:12:19;;;;;;;342.67;107.80;;;;;;;2.10;nan;97366.81;5047330;28;20037;-60
2024/01/16 11:14:51;;;;;;;343.88;112.15;;;;;;;1.95;nan;97363.13;5047192;28;20555;-60
2024/01/16 11:17:19;;;;;;;352.13;119.10;;;;;;;1.90;nan;97356.16;5046589;28;20044;-60
2024/01/16 11:19:47;;;;;;;469.10;120.25;;;;;;;2.25;nan;97365.38;5047873;28;20382;-61